Nearby METAR Reports

 

KSJC - San Jose, California, USA
Distance from station: NE 14km
Updated: 01/12/2020 08:53
Clear
Clear
 Wind from calm
Wind: Calm
Temperature: 8°C
Dew Point: 3°C
Humidity: 71%
Barometer: 1025.1 hPa
Clouds: Clear
Visibility: 14 km
2020/12/01 06:53 KSJC 010653Z 00000KT 9SM CLR 08/03 A3027 RMK AO2 SLP248 T00780033
KNUQ - Moffett Nas/Mtn, California, USA
Distance from station: N 14km
Updated: 15/11/2020 12:00
NOT Current
Clear
Clear
 Wind from calm
Wind: Calm
Temperature: 6°C
Dew Point: 5°C
Humidity: 93%
Barometer: 1025.4 hPa
Clouds: Clear
Visibility: 16 km
2020/11/15 10:00 KNUQ 151000Z AUTO 00000KT 10SM CLR 06/05 A3028 RMK AO2
 
KPAO - Palo Alto, California, USA
Distance from station: NNW 23km
Updated: 01/12/2020 04:47
NOT Current
Clear
Clear
 Wind from calm
Wind: Calm
Temperature: 8°C
Dew Point: 5°C
Humidity: 82%
Barometer: 1024.7 hPa
Clouds: Clear
Visibility: 16 km
2020/12/01 02:47 KPAO 010247Z 00000KT 10SM SKC 08/05 A3026 RMK LAST
KRHV - San Jose/Reid, California, USA
Distance from station: ENE 19km
Updated: 01/12/2020 07:47
NOT Current
Clear
Clear
 Wind from calm
Wind: Calm
Temperature: 7°C
Dew Point: 3°C
Humidity: 76%
Barometer: 1024.7 hPa
Clouds: Clear
Visibility: 16 km
2020/12/01 05:47 KRHV 010547Z 00000KT 10SM SKC 07/03 A3026 RMK LAST
 
KOAK - Oakland, California, USA
Distance from station: NNW 50km
Updated: 01/12/2020 08:53
Clear
Clear
 Wind from NE
Wind: NE 7 km/h
Temperature: 8°C
Wind Chill: 7°C
Dew Point: 5°C
Humidity: 82%
Barometer: 1025.7 hPa
Clouds: Clear
Visibility: 16 km
2020/12/01 06:53 KOAK 010653Z 05004KT 10SM CLR 08/05 A3029 RMK AO2 SLP255 T00780050
KSQL - San Carlos Airpo, California, USA
Distance from station: NW 34km
Updated: 01/12/2020 09:35
Clear
Clear
 Wind from calm
Wind: Calm
Temperature: 7°C
Dew Point: 2°C
Humidity: 71%
Barometer: 1025.7 hPa
Clouds: Clear
Visibility: 16 km
2020/12/01 07:35 KSQL 010735Z AUTO 00000KT 10SM CLR 07/02 A3029 RMK AO2
 
KSFO - San Francisco, California, USA
Distance from station: NW 49km
Updated: 01/12/2020 09:16
Mostly cloudy
Mostly cloudy
 Wind from WNW
Wind: WNW 22 km/h
Temperature: 10°C
Wind Chill: 7°C
Dew Point: 9°C
Humidity: 94%
Barometer: 1025.1 hPa
Clouds: Mostly cloudy
Visibility: 11 km
Cloud details: Mostly cloudy 122 m
2020/12/01 07:16 KSFO 010716Z 29012KT 7SM BKN004 10/09 A3027 RMK AO2 T01000089
KE16 - San Martin, California, USA
Distance from station: ESE 43km
Updated: 01/12/2020 09:35
Clear
Clear
 Wind from NE
Wind: NE 6 km/h
Temperature: 5°C
Dew Point: 1°C
Humidity: 76%
Barometer: 1025.7 hPa
Clouds: Clear
Visibility: 16 km
2020/12/01 07:35 KE16 010735Z AUTO 05003KT 10SM CLR 05/01 A3029 RMK AO2
 
KWVI - Watsonville, California, USA
Distance from station: SSE 44km
Updated: 01/12/2020 08:53
Clear
Clear
 Wind from NW
Wind: NW 6 km/h
Temperature: 7°C
Dew Point: 3°C
Humidity: 76%
Barometer: 1024.7 hPa
Clouds: Clear
Visibility: 16 km
2020/12/01 06:53 KWVI 010653Z AUTO 31003KT 10SM CLR 07/03 A3026 RMK AO2 SLP248 T00720033
KHAF - Half Moon Bay, California, USA
Distance from station: WNW 50km
Updated: 01/12/2020 09:35
Mist, Overcast
Mist, Overcast
 Wind from NNW
Wind: NNW 20 km/h
Temperature: 10°C
Wind Chill: 7°C
Dew Point: 9°C
Humidity: 94%
Barometer: 1026.1 hPa
Summary: Mist
Clouds: Overcast
Visibility: 2.8 km
Cloud details: Overcast 91 m
2020/12/01 07:35 KHAF 010735Z AUTO 33011KT 1 3/4SM BR OVC003 10/09 A3030 RMK AO2
 
KHWD - Hayward, California, USA
Distance from station: N 44km
Updated: 01/12/2020 08:54
Clear
Clear
 Wind from ENE
Wind: ENE 6 km/h
Temperature: 8°C
Dew Point: 2°C
Humidity: 66%
Barometer: 1025.1 hPa
Clouds: Clear
Visibility: 16 km
2020/12/01 06:54 KHWD 010654Z 06003KT 10SM CLR 08/02 A3027 RMK AO2 SLP260 T00830022
KLVK - Livermore, California, USA
Distance from station: NNE 51km
Updated: 01/12/2020 08:53
Clear
Clear
 Wind from ENE
Wind: ENE 6 km/h
Temperature: 6°C
Dew Point: 0°C
Humidity: 66%
Barometer: 1025.1 hPa
Clouds: Clear
Visibility: 16 km
2020/12/01 06:53 KLVK 010653Z AUTO 07003KT 10SM CLR 06/00 A3027 RMK AO2 SLP248 T00560000